Time;durP1;ratioP1;P1;durP2;ratioP2;P2;SDS_P1;SDS_P2;PMS_P1;PMS_P2;Temp;Humidity;BMP_temperature;BMP_pressure;BME280_temperature;BME280_humidity;BME280_pressure;Samples;Min_cycle;Max_cycle;Signal;HPM_P1;HPM_P2
2022/08/16 00:00:34;;;;;;;1.93;1.30;;;18.60;76.00;;;;;;5072410;28;20724;-84
2022/08/16 00:03:03;;;;;;;1.50;1.30;;;18.50;76.90;;;;;;5068664;28;20706;-83
2022/08/16 00:05:30;;;;;;;2.57;1.47;;;18.40;77.00;;;;;;5067967;28;20979;-84
2022/08/16 00:07:58;;;;;;;1.40;1.30;;;18.40;76.60;;;;;;5065938;28;20674;-84
2022/08/16 00:10:27;;;;;;;3.20;2.40;;;18.40;76.70;;;;;;5076650;28;21197;-83
2022/08/16 00:12:55;;;;;;;2.20;1.63;;;18.30;77.40;;;;;;5083446;28;20628;-85
2022/08/16 00:15:25;;;;;;;1.50;1.40;;;18.20;78.40;;;;;;5080125;28;20740;-83
2022/08/16 00:17:53;;;;;;;1.43;1.30;;;18.10;78.40;;;;;;5069490;28;20714;-82
2022/08/16 00:20:22;;;;;;;1.63;1.23;;;18.00;79.10;;;;;;5076195;28;20735;-84
2022/08/16 00:22:50;;;;;;;1.70;1.50;;;17.90;79.50;;;;;;5081311;28;20676;-84
2022/08/16 00:25:19;;;;;;;2.10;1.73;;;18.00;79.70;;;;;;5069219;28;20731;-84
2022/08/16 00:27:46;;;;;;;1.87;1.63;;;17.90;79.90;;;;;;5084269;28;20633;-83
2022/08/16 00:30:16;;;;;;;1.17;1.10;;;17.90;79.40;;;;;;5085363;28;20635;-84
2022/08/16 00:32:45;;;;;;;1.70;1.23;;;17.90;79.60;;;;;;5079876;28;21171;-83
2022/08/16 00:35:17;;;;;;;1.60;1.50;;;17.90;79.40;;;;;;5073405;28;20646;-84
2022/08/16 00:37:46;;;;;;;2.10;1.90;;;17.90;79.30;;;;;;5078108;28;20673;-84
2022/08/16 00:40:16;;;;;;;2.40;1.83;;;18.00;79.40;;;;;;5077770;28;21602;-84
2022/08/16 00:42:44;;;;;;;2.03;1.40;;;18.10;79.20;;;;;;5067752;28;20673;-84
2022/08/16 00:45:23;;;;;;;2.03;1.83;;;18.10;79.10;;;;;;5067200;28;20626;-84
2022/08/16 00:47:50;;;;;;;1.47;1.37;;;18.20;78.80;;;;;;5067544;28;21192;-84
2022/08/16 00:50:22;;;;;;;2.30;1.97;;;18.10;79.20;;;;;;5066726;28;20626;-85
2022/08/16 00:52:49;;;;;;;1.63;1.47;;;18.20;79.60;;;;;;5076095;28;20729;-84
2022/08/16 00:55:16;;;;;;;1.83;1.60;;;18.10;80.00;;;;;;5079274;28;20630;-84
2022/08/16 00:57:43;;;;;;;1.60;1.50;;;18.00;80.10;;;;;;5083101;28;21052;-85
2022/08/16 01:00:11;;;;;;;2.17;1.97;;;18.10;81.20;;;;;;5073454;28;20728;-84
2022/08/16 01:02:38;;;;;;;2.07;1.63;;;18.00;80.60;;;;;;5080920;28;20610;-83
2022/08/16 01:05:06;;;;;;;1.70;1.60;;;18.00;81.20;;;;;;5074225;28;20649;-84
2022/08/16 01:07:35;;;;;;;1.60;1.50;;;18.00;81.00;;;;;;5088261;28;20616;-84
2022/08/16 01:10:02;;;;;;;1.97;1.87;;;18.00;81.60;;;;;;5072394;28;20621;-82
2022/08/16 01:12:30;;;;;;;2.17;1.97;;;18.00;82.00;;;;;;5075414;28;21019;-83
2022/08/16 01:15:00;;;;;;;3.70;2.70;;;18.00;82.00;;;;;;5089905;28;20625;-83
2022/08/16 01:17:30;;;;;;;2.60;2.37;;;17.90;82.90;;;;;;5075594;28;20629;-84
2022/08/16 01:20:02;;;;;;;2.40;2.20;;;17.80;83.60;;;;;;5076367;28;20624;-83
2022/08/16 01:22:42;;;;;;;1.67;1.40;;;17.70;84.60;;;;;;5083754;28;20644;-83
2022/08/16 01:25:16;;;;;;;1.70;1.53;;;17.70;85.20;;;;;;5085114;28;20656;-84
2022/08/16 01:27:47;;;;;;;1.77;1.67;;;17.70;85.30;;;;;;5076249;28;20616;-82
2022/08/16 01:30:19;;;;;;;2.50;2.07;;;17.80;85.10;;;;;;5078983;28;21060;-83
2022/08/16 01:32:46;;;;;;;1.87;1.70;;;17.80;85.00;;;;;;5088598;28;20613;-84
2022/08/16 01:35:19;;;;;;;1.90;1.77;;;17.90;85.00;;;;;;5081398;28;20651;-84
2022/08/16 01:37:50;;;;;;;1.87;1.77;;;18.00;85.30;;;;;;5089606;28;20619;-83
2022/08/16 01:40:23;;;;;;;1.90;1.80;;;18.00;85.10;;;;;;5078435;28;21244;-84
2022/08/16 01:42:51;;;;;;;12.43;2.73;;;18.00;85.20;;;;;;5074155;28;20652;-84
2022/08/16 01:45:20;;;;;;;2.40;2.20;;;17.90;85.80;;;;;;5070250;28;20625;-84
2022/08/16 01:47:50;;;;;;;1.80;1.70;;;17.90;87.30;;;;;;5083456;28;20631;-84
2022/08/16 01:50:20;;;;;;;1.97;1.77;;;17.80;87.60;;;;;;5079630;28;20691;-83
2022/08/16 01:52:49;;;;;;;2.17;1.53;;;17.80;87.90;;;;;;5072779;28;20629;-83
2022/08/16 01:55:17;;;;;;;2.47;1.80;;;17.90;87.70;;;;;;5089751;28;20613;-84
2022/08/16 01:57:46;;;;;;;2.30;1.70;;;17.90;87.50;;;;;;5087521;28;20635;-84
2022/08/16 02:00:15;;;;;;;3.20;2.23;;;18.00;87.80;;;;;;5076800;28;20702;-84
2022/08/16 02:02:42;;;;;;;2.40;2.20;;;18.00;87.60;;;;;;5075151;28;21228;-84
2022/08/16 02:05:09;;;;;;;3.30;1.57;;;18.10;87.40;;;;;;5084071;28;20673;-84
2022/08/16 02:07:37;;;;;;;1.50;1.40;;;18.10;87.40;;;;;;5075387;28;20616;-84
2022/08/16 02:10:06;;;;;;;1.43;1.33;;;18.10;88.30;;;;;;5087617;28;20621;-84
2022/08/16 02:12:33;;;;;;;1.97;1.77;;;18.00;87.70;;;;;;5083117;28;20622;-84
2022/08/16 02:15:03;;;;;;;2.00;1.60;;;18.20;87.80;;;;;;5082414;28;20666;-84
2022/08/16 02:17:31;;;;;;;1.70;1.60;;;18.40;86.70;;;;;;5088929;28;21025;-85
2022/08/16 02:19:58;;;;;;;3.70;1.97;;;18.50;85.40;;;;;;5082494;28;21084;-84
2022/08/16 02:22:26;;;;;;;1.50;1.40;;;18.40;85.10;;;;;;5070435;28;20637;-84
2022/08/16 02:24:54;;;;;;;2.53;2.30;;;18.40;84.70;;;;;;5072366;28;21235;-84
2022/08/16 02:27:24;;;;;;;2.90;2.60;;;18.50;84.50;;;;;;5086561;28;20724;-83
2022/08/16 02:29:51;;;;;;;1.70;1.37;;;18.50;85.20;;;;;;5072783;28;20625;-84
2022/08/16 02:32:19;;;;;;;2.77;1.73;;;18.50;84.70;;;;;;5082240;28;21206;-84
2022/08/16 02:34:47;;;;;;;2.10;1.90;;;18.50;85.30;;;;;;5080930;28;20629;-84
2022/08/16 02:37:16;;;;;;;4.60;1.70;;;18.40;85.90;;;;;;5088747;28;20840;-84
2022/08/16 02:39:44;;;;;;;1.60;1.50;;;18.40;85.50;;;;;;5076945;28;20617;-83
2022/08/16 02:42:11;;;;;;;1.93;1.83;;;18.50;85.90;;;;;;5076455;28;20675;-84
2022/08/16 02:44:40;;;;;;;2.30;2.00;;;18.50;85.80;;;;;;5068509;28;20661;-84
2022/08/16 02:47:07;;;;;;;1.73;1.63;;;18.40;85.90;;;;;;5068221;28;21091;-84
2022/08/16 02:49:37;;;;;;;1.70;1.40;;;18.40;86.10;;;;;;5068127;28;20733;-82
2022/08/16 02:52:06;;;;;;;1.80;1.70;;;18.40;86.10;;;;;;5068790;28;20613;-83
2022/08/16 02:54:34;;;;;;;2.00;1.90;;;18.50;87.00;;;;;;5067805;28;20636;-84
2022/08/16 02:57:03;;;;;;;3.43;2.27;;;18.40;86.30;;;;;;5067836;28;20633;-84
2022/08/16 02:59:30;;;;;;;2.07;1.77;;;18.40;86.70;;;;;;5068031;28;20628;-82
2022/08/16 03:01:57;;;;;;;1.80;1.70;;;18.40;86.90;;;;;;5067467;28;20641;-84
2022/08/16 03:04:24;;;;;;;2.47;2.27;;;18.40;87.10;;;;;;5068259;28;20653;-84
2022/08/16 03:06:53;;;;;;;2.30;2.10;;;18.40;87.40;;;;;;5068345;28;20617;-84
2022/08/16 03:09:20;;;;;;;3.60;2.17;;;18.40;87.50;;;;;;5068077;28;21178;-84
2022/08/16 03:11:47;;;;;;;1.43;1.33;;;18.40;87.60;;;;;;5068183;28;20621;-84
2022/08/16 03:14:14;;;;;;;2.83;2.50;;;18.50;87.10;;;;;;5067003;28;20628;-84
2022/08/16 03:16:41;;;;;;;2.20;2.00;;;18.50;86.90;;;;;;5067303;28;20613;-84
2022/08/16 03:19:09;;;;;;;2.17;1.93;;;18.50;87.30;;;;;;5067720;28;21404;-84
2022/08/16 03:21:36;;;;;;;2.17;1.57;;;18.40;87.50;;;;;;5068248;28;20919;-83
2022/08/16 03:24:06;;;;;;;1.60;1.50;;;18.40;87.90;;;;;;5067749;28;20689;-84
2022/08/16 03:26:33;;;;;;;2.00;1.50;;;18.30;87.90;;;;;;5066495;28;20625;-84
2022/08/16 03:29:00;;;;;;;1.70;1.33;;;18.30;87.90;;;;;;5067516;28;20710;-83
2022/08/16 03:31:27;;;;;;;1.93;1.83;;;18.30;88.90;;;;;;5067543;28;20630;-84
2022/08/16 03:33:54;;;;;;;2.17;1.97;;;18.20;89.00;;;;;;5067397;28;20968;-84
2022/08/16 03:36:21;;;;;;;3.67;1.93;;;18.20;89.10;;;;;;5081240;28;20641;-84
2022/08/16 03:38:48;;;;;;;2.20;1.90;;;18.20;89.10;;;;;;5067558;28;20637;-84
2022/08/16 03:41:17;;;;;;;2.37;2.03;;;18.20;89.30;;;;;;5086138;28;20624;-83
2022/08/16 03:43:43;;;;;;;2.97;2.40;;;18.20;89.30;;;;;;5072189;28;20655;-83
2022/08/16 03:46:11;;;;;;;2.97;2.73;;;18.10;89.40;;;;;;5087546;28;20724;-84
2022/08/16 03:48:39;;;;;;;2.33;2.07;;;18.10;89.40;;;;;;5076779;28;20662;-84
2022/08/16 03:51:08;;;;;;;2.33;1.80;;;18.00;89.90;;;;;;5067706;28;20699;-84
2022/08/16 03:53:36;;;;;;;2.13;1.80;;;18.00;90.00;;;;;;5083938;28;21022;-83
2022/08/16 03:56:03;;;;;;;2.20;2.00;;;17.90;91.00;;;;;;5070842;28;21279;-82
2022/08/16 03:58:31;;;;;;;2.33;1.93;;;17.90;90.50;;;;;;5087466;28;20673;-83
2022/08/16 04:00:58;;;;;;;2.00;1.90;;;17.90;90.90;;;;;;5085439;28;20718;-85
2022/08/16 04:03:25;;;;;;;2.57;2.37;;;17.90;90.80;;;;;;5078213;28;20663;-83
2022/08/16 04:05:52;;;;;;;3.03;2.40;;;17.90;90.60;;;;;;5078663;28;21606;-84
2022/08/16 04:08:21;;;;;;;2.20;1.97;;;17.90;90.60;;;;;;5067083;28;20621;-84
2022/08/16 04:10:48;;;;;;;2.50;1.93;;;17.90;90.60;;;;;;5082386;28;20621;-84
2022/08/16 04:13:15;;;;;;;2.03;1.93;;;17.90;90.70;;;;;;5086206;28;20731;-83
2022/08/16 04:15:44;;;;;;;1.53;1.43;;;17.90;90.60;;;;;;5086764;28;20613;-84
2022/08/16 04:18:11;;;;;;;2.00;1.90;;;18.00;90.70;;;;;;5067381;28;20716;-82
2022/08/16 04:20:38;;;;;;;2.17;1.97;;;18.00;90.70;;;;;;5081025;28;20708;-84
2022/08/16 04:23:06;;;;;;;2.67;2.00;;;18.00;90.60;;;;;;5073453;28;20621;-83
2022/08/16 04:25:34;;;;;;;1.90;1.70;;;18.00;90.70;;;;;;5077619;28;21141;-84
2022/08/16 04:28:02;;;;;;;2.50;2.03;;;18.10;90.60;;;;;;5090011;28;20666;-84
2022/08/16 04:30:28;;;;;;;1.70;1.60;;;17.90;90.10;;;;;;5088382;28;20748;-84
2022/08/16 04:32:57;;;;;;;2.57;2.37;;;18.10;90.40;;;;;;5084903;28;20713;-84
2022/08/16 04:35:25;;;;;;;2.40;2.10;;;18.20;90.50;;;;;;5077237;28;20720;-84
2022/08/16 04:37:52;;;;;;;4.50;2.10;;;18.10;90.80;;;;;;5070856;28;20605;-84
2022/08/16 04:40:21;;;;;;;3.50;2.03;;;18.20;90.50;;;;;;5080836;28;20624;-83
2022/08/16 04:42:49;;;;;;;3.00;1.90;;;18.20;90.50;;;;;;5085205;28;20630;-84
2022/08/16 04:45:16;;;;;;;2.10;1.70;;;18.20;90.50;;;;;;5076573;28;20762;-82
2022/08/16 04:47:44;;;;;;;2.70;2.17;;;18.30;90.40;;;;;;5076011;28;20634;-84
2022/08/16 04:50:15;;;;;;;2.03;1.80;;;18.40;90.10;;;;;;5081105;28;20670;-83
2022/08/16 04:52:44;;;;;;;3.90;2.43;;;18.40;90.00;;;;;;5072599;28;21253;-84
2022/08/16 04:55:13;;;;;;;2.33;2.13;;;18.50;89.70;;;;;;5070994;28;21263;-85
2022/08/16 04:57:40;;;;;;;3.23;2.63;;;18.50;89.70;;;;;;5081830;28;20641;-84
2022/08/16 05:00:12;;;;;;;3.03;2.17;;;18.50;89.80;;;;;;5087075;28;20728;-84
2022/08/16 05:02:39;;;;;;;2.50;2.13;;;18.60;89.00;;;;;;5086892;28;21225;-84
2022/08/16 05:05:08;;;;;;;2.70;2.07;;;18.60;89.30;;;;;;5074545;28;20727;-84
2022/08/16 05:07:36;;;;;;;1.90;1.80;;;18.60;90.00;;;;;;5078546;28;20617;-84
2022/08/16 05:10:04;;;;;;;2.30;2.20;;;18.60;89.60;;;;;;5077491;28;20616;-84
2022/08/16 05:12:32;;;;;;;2.97;2.07;;;18.60;89.50;;;;;;5089576;28;20685;-85
2022/08/16 05:14:58;;;;;;;2.20;1.90;;;18.60;90.20;;;;;;5090625;28;21251;-84
2022/08/16 05:17:25;;;;;;;2.43;1.83;;;18.70;89.50;;;;;;5088205;28;20652;-85
2022/08/16 05:19:52;;;;;;;2.50;2.30;;;18.70;89.80;;;;;;5084604;28;20997;-84
2022/08/16 05:22:19;;;;;;;2.40;2.23;;;18.70;89.90;;;;;;5070086;28;20625;-84
2022/08/16 05:24:48;;;;;;;2.07;1.97;;;18.70;89.40;;;;;;5071500;28;20660;-84
2022/08/16 05:27:15;;;;;;;3.30;2.10;;;18.80;88.90;;;;;;5089295;28;20632;-85
2022/08/16 05:29:42;;;;;;;2.10;1.60;;;18.80;88.80;;;;;;5085774;28;21274;-81
2022/08/16 05:32:09;;;;;;;3.20;2.70;;;18.90;89.00;;;;;;5070440;28;20629;-85
2022/08/16 05:34:36;;;;;;;3.17;2.33;;;18.80;88.60;;;;;;5071386;28;20740;-84
2022/08/16 05:37:03;;;;;;;1.90;1.80;;;18.90;88.00;;;;;;5069474;28;20728;-85
2022/08/16 05:39:30;;;;;;;5.10;1.90;;;18.90;88.40;;;;;;5072812;28;20613;-84
2022/08/16 05:41:58;;;;;;;1.83;1.73;;;19.00;88.30;;;;;;5090386;28;21174;-85
2022/08/16 05:44:25;;;;;;;2.53;2.33;;;18.90;88.80;;;;;;5087626;28;21241;-84
2022/08/16 05:46:54;;;;;;;3.00;2.60;;;19.00;88.30;;;;;;5078302;28;20681;-84
2022/08/16 05:49:21;;;;;;;2.83;2.40;;;19.10;89.80;;;;;;5082616;28;21051;-85
2022/08/16 05:51:48;;;;;;;3.43;2.33;;;19.10;88.30;;;;;;5069991;28;20710;-85
2022/08/16 05:54:17;;;;;;;2.57;1.90;;;19.00;88.60;;;;;;5085445;28;20740;-84
2022/08/16 05:56:45;;;;;;;1.93;1.80;;;19.10;88.30;;;;;;5074002;28;21001;-85
2022/08/16 05:59:15;;;;;;;2.57;2.37;;;19.00;88.00;;;;;;5072844;28;21281;-81
2022/08/16 06:01:44;;;;;;;2.40;2.20;;;19.10;88.20;;;;;;5086305;28;20617;-84
2022/08/16 06:04:12;;;;;;;2.03;1.83;;;19.10;87.90;;;;;;5089049;28;20747;-84
2022/08/16 06:06:40;;;;;;;3.07;2.67;;;19.00;87.90;;;;;;5082452;28;20699;-84
2022/08/16 06:09:07;;;;;;;1.70;1.50;;;19.10;87.80;;;;;;5085260;28;20719;-84
2022/08/16 06:11:34;;;;;;;2.70;2.30;;;19.10;87.20;;;;;;5072948;28;20727;-84
2022/08/16 06:14:01;;;;;;;3.37;2.60;;;19.10;87.50;;;;;;5078732;28;20629;-84
2022/08/16 06:16:30;;;;;;;2.37;2.10;;;19.10;87.80;;;;;;5068611;28;20614;-85
2022/08/16 06:18:56;;;;;;;2.03;1.93;;;19.10;87.60;;;;;;5086475;28;20619;-85
2022/08/16 06:21:24;;;;;;;2.77;2.23;;;19.20;87.60;;;;;;5072005;28;20640;-84
2022/08/16 06:23:51;;;;;;;6.20;2.90;;;19.20;87.70;;;;;;5084770;28;21143;-85
2022/08/16 06:26:18;;;;;;;4.30;2.90;;;19.20;87.50;;;;;;5068659;28;20664;-84
2022/08/16 06:28:45;;;;;;;4.13;2.20;;;19.20;88.00;;;;;;5087155;28;20615;-84
2022/08/16 06:31:14;;;;;;;3.47;2.33;;;19.30;87.40;;;;;;5080620;28;20626;-85
2022/08/16 06:33:43;;;;;;;1.97;1.57;;;19.60;87.30;;;;;;5069804;28;20649;-85
2022/08/16 06:36:11;;;;;;;2.87;2.67;;;19.80;85.80;;;;;;5078518;28;20606;-85
2022/08/16 06:38:38;;;;;;;2.40;2.23;;;19.80;85.40;;;;;;5068971;28;20628;-85
2022/08/16 06:41:07;;;;;;;2.63;2.43;;;19.90;85.10;;;;;;5069381;28;20694;-85
2022/08/16 06:43:35;;;;;;;2.30;1.90;;;20.00;84.80;;;;;;5068466;28;20625;-84
2022/08/16 06:46:04;;;;;;;2.57;2.37;;;20.20;84.30;;;;;;5075243;28;21076;-85
2022/08/16 06:48:32;;;;;;;3.87;2.80;;;20.20;83.90;;;;;;5074810;28;21027;-85
2022/08/16 06:51:01;;;;;;;3.00;2.70;;;20.40;83.80;;;;;;5069530;28;20637;-84
2022/08/16 06:53:28;;;;;;;3.83;2.07;;;20.50;83.30;;;;;;5069670;28;20674;-85
2022/08/16 06:55:57;;;;;;;2.23;2.07;;;20.70;82.20;;;;;;5074527;28;20706;-86
2022/08/16 06:58:24;;;;;;;2.10;2.00;;;20.80;81.60;;;;;;5087632;28;20609;-85
2022/08/16 07:00:51;;;;;;;3.40;3.10;;;20.70;81.40;;;;;;5071544;28;20617;-85
2022/08/16 07:03:19;;;;;;;2.93;2.60;;;20.80;82.00;;;;;;5068425;28;20617;-85
2022/08/16 07:05:46;;;;;;;2.40;2.20;;;20.80;81.60;;;;;;5079763;28;20679;-84
2022/08/16 07:08:14;;;;;;;3.10;2.60;;;20.80;82.00;;;;;;5077513;28;20653;-83
2022/08/16 07:10:41;;;;;;;4.40;2.43;;;20.90;81.50;;;;;;5077272;28;20679;-85
2022/08/16 07:13:08;;;;;;;2.87;2.67;;;21.20;80.60;;;;;;5088650;28;21207;-84
2022/08/16 07:15:35;;;;;;;2.17;1.97;;;21.20;80.70;;;;;;5075866;28;20657;-85
2022/08/16 07:18:04;;;;;;;2.43;2.23;;;21.40;79.40;;;;;;5067909;28;20633;-85
2022/08/16 07:20:31;;;;;;;2.73;2.53;;;21.60;79.00;;;;;;5070894;28;20636;-85
2022/08/16 07:22:58;;;;;;;3.10;2.90;;;21.80;77.90;;;;;;5079955;28;21381;-86
2022/08/16 07:25:26;;;;;;;2.90;2.70;;;22.00;76.40;;;;;;5067594;28;20740;-84
2022/08/16 07:27:53;;;;;;;3.23;2.40;;;22.00;77.00;;;;;;5068932;28;20755;-85
2022/08/16 07:30:20;;;;;;;7.00;3.00;;;22.00;77.50;;;;;;5082486;28;21034;-86
2022/08/16 07:32:49;;;;;;;3.07;2.67;;;22.20;76.90;;;;;;5067790;28;21023;-85
2022/08/16 07:35:16;;;;;;;3.07;2.83;;;22.30;76.40;;;;;;5079937;28;20618;-86
2022/08/16 07:37:43;;;;;;;3.13;2.83;;;22.30;76.30;;;;;;5087701;28;20658;-85
2022/08/16 07:40:11;;;;;;;4.17;3.37;;;22.30;75.00;;;;;;5070489;28;21298;-83
2022/08/16 07:42:39;;;;;;;2.80;2.60;;;22.40;75.70;;;;;;5067905;28;20653;-85
2022/08/16 07:45:08;;;;;;;3.93;3.03;;;22.30;75.10;;;;;;5083492;28;20648;-86
2022/08/16 07:47:36;;;;;;;3.40;3.10;;;22.60;74.80;;;;;;5066938;28;20671;-86
2022/08/16 07:50:03;;;;;;;2.73;2.53;;;22.60;73.60;;;;;;5082905;28;20734;-86
2022/08/16 07:52:29;;;;;;;3.80;3.40;;;22.70;73.60;;;;;;5083736;28;20707;-86
2022/08/16 07:54:56;;;;;;;3.80;3.13;;;22.60;73.30;;;;;;5087579;28;21085;-85
2022/08/16 07:57:23;;;;;;;3.63;3.13;;;22.70;71.20;;;;;;5084490;28;21210;-86
2022/08/16 07:59:52;;;;;;;3.67;3.30;;;22.70;71.40;;;;;;5076536;28;20698;-85
2022/08/16 08:02:19;;;;;;;3.33;3.03;;;22.50;71.30;;;;;;5087011;28;20728;-85
2022/08/16 08:04:46;;;;;;;3.27;2.97;;;22.70;71.30;;;;;;5078700;28;21201;-84
2022/08/16 08:07:13;;;;;;;3.70;3.27;;;22.60;71.30;;;;;;5067734;28;20629;-85
2022/08/16 08:09:40;;;;;;;3.50;2.80;;;22.70;72.00;;;;;;5067693;28;21167;-85
2022/08/16 08:12:07;;;;;;;2.90;2.70;;;22.80;70.90;;;;;;5067806;28;21221;-85
2022/08/16 08:14:34;;;;;;;3.70;3.40;;;22.70;69.90;;;;;;5070569;28;20745;-85
2022/08/16 08:17:06;;;;;;;3.67;3.33;;;22.80;70.50;;;;;;5075840;28;20655;-86
2022/08/16 08:19:33;;;;;;;3.90;3.60;;;22.90;69.40;;;;;;5087267;28;20659;-85
2022/08/16 08:22:00;;;;;;;5.80;3.27;;;23.10;70.20;;;;;;5086914;28;20617;-85
2022/08/16 08:24:27;;;;;;;3.47;3.13;;;23.20;67.90;;;;;;5081009;28;20645;-85
2022/08/16 08:26:58;;;;;;;2.83;2.63;;;23.40;68.40;;;;;;5067307;28;20676;-85
2022/08/16 08:32:46;;;;;;;3.20;2.90;;;23.40;69.80;;;;;;5045437;28;20690;-85
2022/08/16 08:35:15;;;;;;;3.77;3.43;;;23.30;68.10;;;;;;5080973;28;20636;-85
2022/08/16 08:37:42;;;;;;;3.00;2.80;;;23.50;67.50;;;;;;5085534;28;21179;-86
2022/08/16 08:40:28;;;;;;;5.17;4.20;;;23.60;66.70;;;;;;5085040;28;20675;-85
2022/08/16 08:42:59;;;;;;;4.57;3.33;;;23.60;65.80;;;;;;5068634;28;21241;-84
2022/08/16 08:45:33;;;;;;;4.20;3.13;;;23.40;66.10;;;;;;5087318;28;20652;-85
2022/08/16 08:48:05;;;;;;;3.60;3.30;;;23.40;66.90;;;;;;5071733;28;20632;-86
2022/08/16 08:50:35;;;;;;;3.20;2.90;;;23.40;67.80;;;;;;5066667;28;20989;-85
2022/08/16 08:53:05;;;;;;;3.63;3.10;;;23.40;67.10;;;;;;5066090;28;21042;-84
2022/08/16 08:55:41;;;;;;;3.57;3.27;;;23.40;67.60;;;;;;5076476;28;20626;-85
2022/08/16 08:58:14;;;;;;;3.53;3.20;;;23.50;67.50;;;;;;5066492;28;20982;-85
2022/08/16 09:00:50;;;;;;;3.13;2.87;;;23.80;64.40;;;;;;5082641;28;20659;-85
2022/08/16 09:03:29;;;;;;;4.17;3.50;;;23.80;64.90;;;;;;5083879;28;20632;-85
2022/08/16 09:05:59;;;;;;;3.37;3.07;;;23.60;65.50;;;;;;5067285;28;20704;-85
2022/08/16 09:08:43;;;;;;;3.23;2.93;;;23.70;65.80;;;;;;5065795;28;20617;-85
2022/08/16 09:11:15;;;;;;;5.20;3.37;;;23.90;65.10;;;;;;5066664;28;20621;-85
2022/08/16 09:13:44;;;;;;;3.50;3.20;;;23.60;64.90;;;;;;5071629;28;20621;-85
2022/08/16 09:16:16;;;;;;;3.17;2.97;;;23.40;64.90;;;;;;5077751;28;20625;-86
2022/08/16 09:18:56;;;;;;;3.90;3.17;;;23.20;65.50;;;;;;5072335;28;21513;-85
2022/08/16 09:21:27;;;;;;;3.83;3.40;;;23.10;65.30;;;;;;5089746;28;20667;-86
2022/08/16 09:24:01;;;;;;;3.43;3.13;;;23.20;65.80;;;;;;5089665;28;20655;-86
2022/08/16 09:26:48;;;;;;;4.17;3.87;;;23.10;65.90;;;;;;5075234;28;21724;-85
2022/08/16 09:29:19;;;;;;;3.70;3.40;;;23.10;65.60;;;;;;5076064;28;20621;-85
2022/08/16 09:31:54;;;;;;;4.53;3.20;;;23.10;64.70;;;;;;5090194;28;20624;-85
2022/08/16 09:34:40;;;;;;;5.27;3.47;;;22.90;63.60;;;;;;5077606;28;20624;-85
2022/08/16 09:37:23;;;;;;;4.27;3.87;;;23.10;63.70;;;;;;5088784;28;20630;-86
2022/08/16 09:43:03;;;;;;;3.70;2.93;;;23.40;64.80;;;;;;5071571;28;20629;-85
2022/08/16 09:45:54;;;;;;;3.33;3.13;;;23.80;63.00;;;;;;5070513;28;20625;-85
2022/08/16 09:48:40;;;;;;;5.40;3.73;;;24.10;62.00;;;;;;5075145;28;20617;-85
2022/08/16 09:51:26;;;;;;;3.33;3.07;;;24.40;62.60;;;;;;5088820;28;20640;-86
2022/08/16 09:54:06;;;;;;;4.33;3.70;;;24.60;60.40;;;;;;5074998;28;20653;-85
2022/08/16 09:57:01;;;;;;;4.20;3.47;;;25.00;59.70;;;;;;5070600;28;20633;-85
2022/08/16 09:59:41;;;;;;;5.27;3.50;;;25.20;59.90;;;;;;5078078;28;20623;-85
2022/08/16 10:04:59;;;;;;;3.87;3.33;;;25.90;59.00;;;;;;5072067;28;20645;-86
2022/08/16 10:07:46;;;;;;;3.47;3.17;;;26.30;57.70;;;;;;5089034;28;20648;-86
2022/08/16 10:10:19;;;;;;;3.57;3.27;;;26.70;57.20;;;;;;5073878;28;20630;-86
2022/08/16 10:16:04;;;;;;;4.10;3.70;;;27.00;54.90;;;;;;5084714;28;20639;-87
2022/08/16 10:18:33;;;;;;;3.60;3.30;;;27.10;55.10;;;;;;5084362;28;21389;-87
2022/08/16 10:20:59;;;;;;;2.90;2.63;;;27.20;54.60;;;;;;5069136;28;21255;-87
2022/08/16 10:23:28;;;;;;;3.60;3.30;;;27.10;55.60;;;;;;5091705;28;20628;-86
2022/08/16 10:25:55;;;;;;;2.93;2.73;;;27.10;56.20;;;;;;5090241;28;20756;-85
2022/08/16 10:28:23;;;;;;;3.17;2.87;;;27.00;55.00;;;;;;5068423;28;20641;-86
2022/08/16 10:30:51;;;;;;;2.80;2.60;;;26.40;53.90;;;;;;5068471;28;20646;-86
2022/08/16 10:33:18;;;;;;;3.17;2.87;;;26.40;55.30;;;;;;5068971;28;20649;-86
2022/08/16 10:35:46;;;;;;;3.53;3.20;;;26.60;56.10;;;;;;5085581;28;21063;-86
2022/08/16 10:38:15;;;;;;;4.37;3.97;;;26.60;57.00;;;;;;5086350;28;20693;-86
2022/08/16 10:40:44;;;;;;;3.47;3.10;;;26.00;57.60;;;;;;5068632;28;20621;-85
2022/08/16 10:43:13;;;;;;;6.13;3.60;;;25.50;59.20;;;;;;5080458;28;20633;-84
2022/08/16 10:45:41;;;;;;;4.37;3.07;;;25.40;59.50;;;;;;5088550;28;20609;-87
2022/08/16 10:48:11;;;;;;;4.10;3.70;;;25.70;59.90;;;;;;5080859;28;20628;-86
2022/08/16 10:50:38;;;;;;;3.17;2.87;;;25.90;58.60;;;;;;5072682;28;20633;-86
2022/08/16 10:53:05;;;;;;;3.57;3.27;;;26.10;58.20;;;;;;5084810;28;20629;-84
2022/08/16 10:55:35;;;;;;;5.03;3.40;;;25.90;57.70;;;;;;5080212;28;20656;-86
2022/08/16 10:58:06;;;;;;;3.57;2.97;;;26.00;58.50;;;;;;5068338;28;21015;-87
2022/08/16 11:00:33;;;;;;;3.67;3.30;;;26.10;58.60;;;;;;5082650;28;20759;-85
2022/08/16 11:03:01;;;;;;;3.53;3.23;;;26.10;57.90;;;;;;5088494;28;20723;-85
2022/08/16 11:05:29;;;;;;;3.60;3.30;;;26.50;58.40;;;;;;5087688;28;20636;-85
2022/08/16 11:07:56;;;;;;;3.40;3.10;;;26.50;56.90;;;;;;5067776;28;20661;-85
2022/08/16 11:10:31;;;;;;;3.50;3.20;;;26.50;57.50;;;;;;5067891;28;20687;-84
2022/08/16 11:12:58;;;;;;;3.23;2.93;;;26.40;57.50;;;;;;5068112;28;20703;-85
2022/08/16 11:15:27;;;;;;;3.47;3.20;;;26.10;57.40;;;;;;5071287;28;20630;-86
2022/08/16 11:17:55;;;;;;;3.10;2.90;;;25.80;57.40;;;;;;5074468;28;20624;-87
2022/08/16 11:20:22;;;;;;;3.53;3.23;;;25.50;58.10;;;;;;5088432;28;20612;-85
2022/08/16 11:22:52;;;;;;;3.90;3.50;;;25.30;58.10;;;;;;5086846;28;20640;-85
2022/08/16 11:25:23;;;;;;;2.80;2.53;;;25.40;58.10;;;;;;5072200;28;20640;-85
2022/08/16 11:27:50;;;;;;;4.07;3.60;;;25.50;56.60;;;;;;5068420;28;20649;-84
2022/08/16 11:30:17;;;;;;;2.80;2.60;;;25.80;58.10;;;;;;5067960;28;20624;-85
2022/08/16 11:32:46;;;;;;;3.23;2.93;;;26.10;57.50;;;;;;5071260;28;20620;-86
2022/08/16 11:35:15;;;;;;;3.90;3.23;;;26.50;56.70;;;;;;5073227;28;20657;-86
2022/08/16 11:37:45;;;;;;;3.47;3.27;;;26.90;55.40;;;;;;5074256;28;20717;-87
2022/08/16 11:40:13;;;;;;;3.40;3.10;;;27.60;54.50;;;;;;5070371;28;20640;-87
2022/08/16 11:42:40;;;;;;;3.20;2.90;;;28.10;54.70;;;;;;5073394;28;20629;-87
2022/08/16 11:45:07;;;;;;;3.00;2.80;;;28.50;53.80;;;;;;5088567;28;20716;-85
2022/08/16 11:47:34;;;;;;;3.83;3.53;;;29.10;52.30;;;;;;5083256;28;20661;-87
2022/08/16 11:50:03;;;;;;;3.07;2.87;;;29.10;52.30;;;;;;5082465;28;20624;-86
2022/08/16 11:52:30;;;;;;;4.17;3.30;;;29.50;51.10;;;;;;5067747;28;20629;-86
2022/08/16 11:54:57;;;;;;;3.40;3.10;;;29.20;50.60;;;;;;5071523;28;20625;-85
2022/08/16 11:57:23;;;;;;;3.00;2.80;;;29.20;51.90;;;;;;5084919;28;20641;-86
2022/08/16 11:59:51;;;;;;;3.20;3.00;;;29.60;51.80;;;;;;5076833;28;20653;-87
2022/08/16 12:02:17;;;;;;;3.23;3.03;;;29.50;51.40;;;;;;5068211;28;20661;-87
2022/08/16 12:04:44;;;;;;;3.03;2.83;;;29.90;51.30;;;;;;5068082;28;20626;-85
2022/08/16 12:07:13;;;;;;;2.50;2.30;;;30.00;51.20;;;;;;5068365;28;20746;-87
2022/08/16 12:09:40;;;;;;;3.70;3.40;;;29.60;50.70;;;;;;5076814;28;21278;-87
2022/08/16 12:12:08;;;;;;;3.33;3.10;;;28.80;51.60;;;;;;5067513;28;20660;-87
2022/08/16 12:14:35;;;;;;;3.60;3.40;;;28.10;51.80;;;;;;5079046;28;20640;-86
2022/08/16 12:17:03;;;;;;;2.97;2.77;;;27.50;52.70;;;;;;5076897;28;20899;-85
2022/08/16 12:19:31;;;;;;;3.13;2.93;;;27.60;52.70;;;;;;5083940;28;20628;-86
2022/08/16 12:21:58;;;;;;;3.50;3.20;;;27.50;54.00;;;;;;5086315;28;20632;-86
2022/08/16 12:24:27;;;;;;;2.70;2.50;;;27.80;52.80;;;;;;5082455;28;20635;-85
2022/08/16 12:26:55;;;;;;;2.97;2.70;;;29.00;52.10;;;;;;5080132;28;21138;-85
2022/08/16 12:29:22;;;;;;;3.63;3.17;;;30.30;51.00;;;;;;5082641;28;20723;-86
2022/08/16 12:31:50;;;;;;;3.20;3.00;;;31.90;47.90;;;;;;5085790;28;20644;-87
2022/08/16 12:34:17;;;;;;;3.37;3.07;;;32.60;46.70;;;;;;5079934;28;20622;-87
2022/08/16 12:36:45;;;;;;;3.00;2.80;;;31.80;45.90;;;;;;5067130;28;21033;-88
2022/08/16 12:39:13;;;;;;;3.27;2.90;;;32.00;47.40;;;;;;5082559;28;20633;-88
2022/08/16 12:41:45;;;;;;;3.03;2.83;;;31.80;45.30;;;;;;5080108;28;20664;-87
2022/08/16 12:44:12;;;;;;;2.80;2.60;;;32.50;46.00;;;;;;5069894;28;20756;-88
2022/08/16 12:46:39;;;;;;;2.90;2.70;;;33.80;45.50;;;;;;5068855;28;20699;-88
2022/08/16 12:49:07;;;;;;;3.33;3.03;;;35.10;43.60;;;;;;5075081;28;21079;-86
2022/08/16 12:51:36;;;;;;;2.70;2.60;;;35.70;41.60;;;;;;5072602;28;20668;-87
2022/08/16 12:54:08;;;;;;;2.80;2.60;;;36.50;40.40;;;;;;5072891;28;20699;-87
2022/08/16 12:56:38;;;;;;;2.40;2.30;;;36.60;39.40;;;;;;5071038;28;20648;-88
2022/08/16 12:59:09;;;;;;;2.67;2.47;;;36.80;39.60;;;;;;5077272;28;20636;-88
2022/08/16 13:01:37;;;;;;;2.67;2.47;;;37.00;39.50;;;;;;5078460;28;20186;-89
2022/08/16 13:04:07;;;;;;;2.58;2.45;;;37.80;37.80;;;;;;5080914;28;20223;-89
2022/08/16 13:06:35;;;;;;;2.80;2.60;;;38.50;36.90;;;;;;5086740;28;20278;-86
2022/08/16 13:09:18;;;;;;;2.90;2.70;;;38.80;37.40;;;;;;5086744;28;20190;-88